createdAt,value
2024-03-07T00:01:12.508Z,102698.97
2024-03-07T00:03:41.129Z,102703.44
2024-03-07T00:06:09.834Z,102707.00
2024-03-07T00:08:39.309Z,102718.56
2024-03-07T00:11:08.597Z,102715.91
2024-03-07T00:13:37.009Z,102707.91
2024-03-07T00:16:05.508Z,102715.00
2024-03-07T00:18:33.663Z,102708.78
2024-03-07T00:21:02.932Z,102709.69
2024-03-07T00:23:32.959Z,102707.91
2024-03-07T00:26:02.522Z,102711.47
2024-03-07T00:28:33.645Z,102708.81
2024-03-07T00:31:01.787Z,102711.50
2024-03-07T00:33:46.182Z,102707.03
2024-03-07T00:36:18.016Z,102703.47
2024-03-07T00:38:46.314Z,102701.69
2024-03-07T00:41:16.757Z,102697.25
2024-03-07T00:43:44.897Z,102703.47
2024-03-07T00:46:13.144Z,102701.69
2024-03-07T00:48:41.604Z,102699.03
2024-03-07T00:51:10.027Z,102703.47
2024-03-07T00:53:38.215Z,102691.03
2024-03-07T00:56:06.627Z,102691.03
2024-03-07T00:58:36.580Z,102691.94
2024-03-07T01:01:05.650Z,102688.38
2024-03-07T01:03:33.765Z,102690.16
2024-03-07T01:06:01.956Z,102676.81
2024-03-07T01:08:33.503Z,102689.28
2024-03-07T01:11:01.788Z,102677.72
2024-03-07T01:13:31.219Z,102680.38
2024-03-07T01:16:00.697Z,102686.63
2024-03-07T01:18:28.877Z,102682.19
2024-03-07T01:20:57.740Z,102682.19
2024-03-07T01:23:25.949Z,102688.41
2024-03-07T01:25:54.203Z,102683.97
2024-03-07T01:28:23.512Z,102682.19
2024-03-07T01:30:52.066Z,102679.53
2024-03-07T01:33:21.683Z,102680.44
2024-03-07T01:35:50.125Z,102684.00
2024-03-07T01:38:18.689Z,102676.88
2024-03-07T01:40:47.406Z,102685.78
2024-03-07T01:43:16.080Z,102677.81
2024-03-07T01:45:44.693Z,102680.44
2024-03-07T01:48:15.205Z,102682.22
2024-03-07T01:50:44.752Z,102675.13
2024-03-07T01:53:14.338Z,102684.91
2024-03-07T01:55:42.577Z,102674.22
2024-03-07T01:58:14.379Z,102679.59
2024-03-07T02:00:43.800Z,102674.28
2024-03-07T02:03:11.971Z,102681.38
2024-03-07T02:05:40.153Z,102673.44
2024-03-07T02:08:09.856Z,102677.00
2024-03-07T02:10:38.040Z,102679.66
2024-03-07T02:13:07.124Z,102678.78
2024-03-07T02:15:35.224Z,102678.81
2024-03-07T02:18:03.795Z,102675.25
2024-03-07T02:20:32.081Z,102679.72
2024-03-07T02:23:01.542Z,102679.75
2024-03-07T02:25:29.641Z,102681.56
2024-03-07T02:27:57.831Z,102678.00
2024-03-07T02:30:25.944Z,102681.56
2024-03-07T02:32:56.515Z,102674.47
2024-03-07T02:35:25.359Z,102676.25
2024-03-07T02:37:53.576Z,102672.69
2024-03-07T02:40:23.039Z,102674.47
2024-03-07T02:42:51.212Z,102677.16
2024-03-07T02:45:19.362Z,102671.81
2024-03-07T02:47:47.524Z,102669.16
2024-03-07T02:50:15.935Z,102669.16
2024-03-07T02:52:44.115Z,102668.28
2024-03-07T02:55:12.420Z,102659.38
2024-03-07T02:57:41.935Z,102660.28
2024-03-07T03:00:20.572Z,102670.03
2024-03-07T03:02:50.105Z,102666.50
2024-03-07T03:05:20.083Z,102665.63
2024-03-07T03:07:54.497Z,102676.25
2024-03-07T03:10:26.781Z,102670.94
2024-03-07T03:12:59.090Z,102670.91
2024-03-07T03:15:27.581Z,102669.13
2024-03-07T03:17:55.836Z,102672.69
2024-03-07T03:20:26.974Z,102671.78
2024-03-07T03:23:08.155Z,102662.06
2024-03-07T03:25:44.361Z,102662.06
2024-03-07T03:28:13.877Z,102677.16
2024-03-07T03:30:43.963Z,102663.81
2024-03-07T03:33:13.013Z,102665.59
2024-03-07T03:35:41.819Z,102668.25
2024-03-07T03:38:11.327Z,102665.59
2024-03-07T03:40:39.599Z,102671.81
2024-03-07T03:43:08.642Z,102670.03
2024-03-07T03:45:38.563Z,102667.38
2024-03-07T03:48:08.063Z,102670.91
2024-03-07T03:50:36.401Z,102670.91
2024-03-07T03:53:05.184Z,102676.25
2024-03-07T03:55:34.026Z,102670.94
2024-03-07T03:58:02.359Z,102676.22
2024-03-07T04:00:30.807Z,102675.34
2024-03-07T04:03:00.310Z,102670.03
2024-03-07T04:05:28.586Z,102673.56
2024-03-07T04:07:57.589Z,102672.69
2024-03-07T04:10:25.746Z,102670.00
2024-03-07T04:12:53.889Z,102677.13
2024-03-07T04:15:22.992Z,102678.00
2024-03-07T04:17:51.453Z,102672.69
2024-03-07T04:20:21.250Z,102662.94
2024-03-07T04:22:50.914Z,102662.03
2024-03-07T04:25:19.729Z,102670.00
2024-03-07T04:27:51.118Z,102665.59
2024-03-07T04:30:19.551Z,102654.03
2024-03-07T04:32:47.781Z,102650.53
2024-03-07T04:35:19.130Z,102650.53
2024-03-07T04:37:49.838Z,102656.69
2024-03-07T04:40:19.255Z,102654.97
2024-03-07T04:42:50.872Z,102654.97
2024-03-07T04:45:20.154Z,102650.53
2024-03-07T04:47:49.527Z,102655.84
2024-03-07T04:50:19.963Z,102655.84
2024-03-07T04:52:50.946Z,102641.66
2024-03-07T04:55:20.492Z,102651.38
2024-03-07T04:57:48.624Z,102651.41
2024-03-07T05:00:20.539Z,102649.63
2024-03-07T05:02:51.177Z,102660.25
2024-03-07T05:05:23.793Z,102654.03
2024-03-07T05:07:54.428Z,102652.28
2024-03-07T05:10:22.956Z,102645.16
2024-03-07T05:12:51.390Z,102650.47
2024-03-07T05:15:20.152Z,102645.16
2024-03-07T05:17:48.495Z,102640.69
2024-03-07T05:20:17.499Z,102651.34
2024-03-07T05:22:51.315Z,102650.47
2024-03-07T05:25:21.396Z,102656.66
2024-03-07T05:27:51.356Z,102653.09
2024-03-07T05:30:19.662Z,102661.06
2024-03-07T05:32:49.218Z,102669.03
2024-03-07T05:35:21.212Z,102664.59
2024-03-07T05:37:51.734Z,102663.75
2024-03-07T05:40:21.634Z,102661.09
2024-03-07T05:42:49.973Z,102664.63
2024-03-07T05:45:19.228Z,102670.84
2024-03-07T05:47:48.664Z,102673.53
2024-03-07T05:50:17.748Z,102677.97
2024-03-07T05:52:46.119Z,102673.53
2024-03-07T05:55:14.421Z,102663.78
2024-03-07T05:57:44.525Z,102670.88
2024-03-07T06:00:16.711Z,102669.97
2024-03-07T06:02:44.933Z,102669.09
2024-03-07T06:05:16.851Z,102670.00
2024-03-07T06:07:46.799Z,102669.13
2024-03-07T06:10:18.103Z,102677.09
2024-03-07T06:15:18.862Z,102675.31
2024-03-07T06:17:47.713Z,102688.66
2024-03-07T06:20:23.893Z,102687.75
2024-03-07T06:22:53.101Z,102683.31
2024-03-07T06:25:24.169Z,102686.88
2024-03-07T06:27:53.640Z,102681.56
2024-03-07T06:30:21.732Z,102685.13
2024-03-07T06:32:50.627Z,102680.69
2024-03-07T06:35:20.869Z,102693.09
2024-03-07T06:37:48.949Z,102687.81
2024-03-07T06:40:22.421Z,102685.13
2024-03-07T06:42:50.654Z,102686.91
2024-03-07T06:45:20.282Z,102692.22
2024-03-07T06:47:48.546Z,102691.31
2024-03-07T06:50:27.377Z,102694.00
2024-03-07T06:53:03.378Z,102689.56
2024-03-07T06:55:34.762Z,102690.44
2024-03-07T06:58:05.782Z,102690.44
2024-03-07T07:00:37.791Z,102683.34
2024-03-07T07:03:07.398Z,102686.03
2024-03-07T07:05:36.387Z,102686.00
2024-03-07T07:08:07.699Z,102684.22
2024-03-07T07:10:36.921Z,102682.44
2024-03-07T07:13:05.816Z,102682.44
2024-03-07T07:15:35.796Z,102683.31
2024-03-07T07:18:04.420Z,102677.09
2024-03-07T07:20:35.601Z,102679.72
2024-03-07T07:23:05.012Z,102684.16
2024-03-07T07:25:33.655Z,102677.94
2024-03-07T07:28:02.401Z,102685.00
2024-03-07T07:30:30.600Z,102685.91
2024-03-07T07:33:00.192Z,102683.19
2024-03-07T07:35:28.529Z,102688.50
2024-03-07T07:37:57.557Z,102685.78
2024-03-07T07:40:28.608Z,102681.34
2024-03-07T07:42:57.205Z,102688.38
2024-03-07T07:45:26.192Z,102672.38
2024-03-07T07:47:55.368Z,102673.25
2024-03-07T07:50:26.496Z,102676.78
2024-03-07T07:52:56.958Z,102665.22
2024-03-07T07:55:27.411Z,102671.44
2024-03-07T07:57:57.602Z,102667.84
2024-03-07T08:00:29.793Z,102658.97
2024-03-07T08:03:00.339Z,102661.59
2024-03-07T08:05:32.720Z,102666.94
2024-03-07T08:08:06.593Z,102653.56
2024-03-07T08:10:36.805Z,102660.59
2024-03-07T08:13:08.051Z,102655.22
2024-03-07T08:15:36.421Z,102658.72
2024-03-07T08:18:09.646Z,102654.19
2024-03-07T08:20:41.815Z,102658.59
2024-03-07T08:23:11.800Z,102653.19
2024-03-07T08:25:41.692Z,102656.69
2024-03-07T08:28:10.680Z,102651.34
2024-03-07T08:30:38.905Z,102650.41
2024-03-07T08:33:07.887Z,102656.66
2024-03-07T08:35:36.789Z,102664.66
2024-03-07T08:38:06.632Z,102658.44
2024-03-07T08:40:35.289Z,102655.78
2024-03-07T08:43:05.090Z,102654.00
2024-03-07T08:45:34.889Z,102656.66
2024-03-07T08:48:05.234Z,102652.25
2024-03-07T08:50:35.235Z,102649.59
2024-03-07T08:53:03.640Z,102649.63
2024-03-07T08:55:33.144Z,102647.84
2024-03-07T08:58:01.484Z,102655.88
2024-03-07T09:00:29.589Z,102663.94
2024-03-07T09:03:01.061Z,102654.19
2024-03-07T09:05:31.035Z,102656.00
2024-03-07T09:08:00.977Z,102660.47
2024-03-07T09:10:31.340Z,102656.94
2024-03-07T09:13:01.464Z,102662.25
2024-03-07T09:15:29.792Z,102655.97
2024-03-07T09:17:59.161Z,102655.97
2024-03-07T09:20:28.242Z,102656.84
2024-03-07T09:22:57.128Z,102655.09
2024-03-07T09:25:26.580Z,102655.06
2024-03-07T09:27:56.642Z,102655.97
2024-03-07T09:30:28.482Z,102647.09
2024-03-07T09:32:57.359Z,102651.56
2024-03-07T09:35:26.206Z,102649.78
2024-03-07T09:37:54.824Z,102648.91
2024-03-07T09:40:25.961Z,102643.53
2024-03-07T09:42:55.937Z,102650.66
2024-03-07T09:45:30.320Z,102647.13
2024-03-07T09:47:59.719Z,102653.38
2024-03-07T09:50:31.189Z,102649.78
2024-03-07T09:53:01.558Z,102646.19
2024-03-07T09:55:30.452Z,102649.72
2024-03-07T09:58:02.606Z,102652.38
2024-03-07T10:00:34.236Z,102644.34
2024-03-07T10:03:08.478Z,102651.44
2024-03-07T10:05:39.106Z,102648.75
2024-03-07T10:08:09.204Z,102636.28
2024-03-07T10:10:37.662Z,102639.88
2024-03-07T10:13:06.765Z,102640.72
2024-03-07T10:15:36.546Z,102647.88
2024-03-07T10:18:08.948Z,102639.81
2024-03-07T10:21:31.173Z,102646.09
2024-03-07T10:24:09.026Z,102656.69
2024-03-07T10:26:38.940Z,102648.63
2024-03-07T10:29:24.871Z,102652.13
2024-03-07T10:32:05.418Z,102650.28
2024-03-07T10:34:36.099Z,102651.13
2024-03-07T10:37:05.172Z,102651.06
2024-03-07T10:39:33.449Z,102643.00
2024-03-07T10:42:06.810Z,102646.47
2024-03-07T10:44:42.838Z,102644.56
2024-03-07T10:47:17.982Z,102645.38
2024-03-07T10:50:01.144Z,102646.16
2024-03-07T10:52:36.439Z,102637.16
2024-03-07T10:55:18.115Z,102636.97
2024-03-07T10:57:54.500Z,102630.69
2024-03-07T11:00:38.234Z,102635.06
2024-03-07T11:03:09.114Z,102622.50
2024-03-07T11:05:38.013Z,102629.59
2024-03-07T11:08:12.705Z,102627.66
2024-03-07T11:10:42.631Z,102627.56
2024-03-07T11:13:13.882Z,102620.19
2024-03-07T11:15:47.997Z,102620.00
2024-03-07T11:18:18.692Z,102623.34
2024-03-07T11:20:48.286Z,102623.09
2024-03-07T11:23:34.533Z,102622.94
2024-03-07T11:26:09.289Z,102620.19
2024-03-07T11:28:39.513Z,102621.97
2024-03-07T11:31:27.808Z,102619.28
2024-03-07T11:34:16.618Z,102610.22
2024-03-07T11:36:46.516Z,102605.56
2024-03-07T11:39:52.185Z,102607.38
2024-03-07T11:42:27.702Z,102610.00
2024-03-07T11:44:58.345Z,102597.56
2024-03-07T11:47:30.263Z,102599.28
2024-03-07T11:50:17.696Z,102606.28
2024-03-07T11:52:47.167Z,102603.28
2024-03-07T11:55:16.263Z,102598.50
2024-03-07T11:57:45.860Z,102591.16
2024-03-07T12:00:32.455Z,102591.13
2024-03-07T12:03:00.620Z,102584.97
2024-03-07T12:05:40.751Z,102590.50
2024-03-07T12:08:10.603Z,102580.75
2024-03-07T12:10:40.915Z,102579.94
2024-03-07T12:13:09.214Z,102577.41
2024-03-07T12:15:39.016Z,102576.59
2024-03-07T12:18:10.829Z,102578.34
2024-03-07T12:20:42.181Z,102566.00
2024-03-07T12:23:12.893Z,102564.25
2024-03-07T12:25:41.412Z,102568.00
2024-03-07T12:28:13.056Z,102562.63
2024-03-07T12:30:51.829Z,102563.50
2024-03-07T12:33:21.588Z,102562.34
2024-03-07T12:35:53.416Z,102554.03
2024-03-07T12:38:23.972Z,102559.22
2024-03-07T12:41:07.288Z,102550.22
2024-03-07T12:43:36.103Z,102559.81
2024-03-07T12:46:07.465Z,102546.13
2024-03-07T12:48:39.845Z,102553.03
2024-03-07T12:51:11.350Z,102545.84
2024-03-07T12:53:40.026Z,102537.75
2024-03-07T12:56:10.165Z,102548.44
2024-03-07T12:58:38.308Z,102540.28
2024-03-07T13:01:07.059Z,102538.22
2024-03-07T13:03:36.387Z,102538.03
2024-03-07T13:06:06.205Z,102534.16
2024-03-07T13:08:36.418Z,102530.47
2024-03-07T13:11:06.560Z,102530.13
2024-03-07T13:13:35.156Z,102526.69
2024-03-07T13:16:03.248Z,102528.53
2024-03-07T13:18:34.998Z,102523.50
2024-03-07T13:21:05.182Z,102520.75
2024-03-07T13:23:35.193Z,102525.25
2024-03-07T13:26:09.496Z,102514.44
2024-03-07T13:28:37.974Z,102511.59
2024-03-07T13:31:06.187Z,102508.50
2024-03-07T13:33:36.822Z,102510.97
2024-03-07T13:36:06.400Z,102515.78
2024-03-07T13:38:36.027Z,102504.91
2024-03-07T13:41:05.235Z,102501.88
2024-03-07T13:43:34.722Z,102508.56
2024-03-07T13:46:03.093Z,102499.50
2024-03-07T13:48:33.703Z,102504.56
2024-03-07T13:51:02.140Z,102498.31
2024-03-07T13:53:34.957Z,102502.19
2024-03-07T13:56:45.482Z,102493.94
2024-03-07T14:00:01.931Z,102496.38
2024-03-07T14:03:10.559Z,102500.53
2024-03-07T14:06:07.535Z,102493.59
2024-03-07T14:09:21.366Z,102493.84
2024-03-07T14:12:38.667Z,102481.59
2024-03-07T14:15:59.057Z,102487.88
2024-03-07T14:19:23.188Z,102489.78
2024-03-07T14:22:22.462Z,102482.19
2024-03-07T14:25:46.468Z,102476.41
2024-03-07T14:28:30.055Z,102476.41
2024-03-07T14:30:59.462Z,102475.94
2024-03-07T14:33:33.565Z,102466.75
2024-03-07T14:36:08.808Z,102472.78
2024-03-07T14:38:55.049Z,102469.53
2024-03-07T14:41:42.333Z,102468.66
2024-03-07T14:44:12.208Z,102466.03
2024-03-07T14:46:40.330Z,102458.50
2024-03-07T14:49:09.669Z,102457.00
2024-03-07T14:51:48.577Z,102447.13
2024-03-07T14:54:23.497Z,102449.72
2024-03-07T14:56:51.911Z,102445.31
2024-03-07T14:59:22.186Z,102444.59
2024-03-07T15:01:51.617Z,102449.25
2024-03-07T15:04:20.209Z,102443.28
2024-03-07T15:06:48.359Z,102434.53
2024-03-07T15:09:16.845Z,102438.28
2024-03-07T15:11:45.909Z,102441.97
2024-03-07T15:14:16.526Z,102434.13
2024-03-07T15:16:47.705Z,102442.56
2024-03-07T15:19:16.225Z,102429.66
2024-03-07T15:21:44.327Z,102428.28
2024-03-07T15:24:12.771Z,102420.63
2024-03-07T15:26:40.923Z,102425.41
2024-03-07T15:29:09.034Z,102422.97
2024-03-07T15:31:37.272Z,102425.09
2024-03-07T15:34:07.869Z,102420.81
2024-03-07T15:36:35.987Z,102419.09
2024-03-07T15:39:20.694Z,102414.78
2024-03-07T15:41:49.241Z,102415.84
2024-03-07T15:44:19.669Z,102415.16
2024-03-07T15:46:47.796Z,102418.88
2024-03-07T15:49:18.349Z,102414.56
2024-03-07T15:51:47.690Z,102413.03
2024-03-07T15:54:19.638Z,102419.41
2024-03-07T15:56:49.803Z,102407.94
2024-03-07T15:59:18.104Z,102406.19
2024-03-07T16:01:47.046Z,102413.44
2024-03-07T16:04:17.516Z,102410.97
2024-03-07T16:06:46.220Z,102412.97
2024-03-07T16:09:14.947Z,102414.94
2024-03-07T16:11:43.337Z,102407.03
2024-03-07T16:14:12.774Z,102413.41
2024-03-07T16:16:42.936Z,102402.78
2024-03-07T16:19:11.736Z,102409.09
2024-03-07T16:21:41.732Z,102403.84
2024-03-07T16:24:11.910Z,102402.16
2024-03-07T16:26:40.127Z,102393.34
2024-03-07T16:29:12.765Z,102396.19
2024-03-07T16:31:41.146Z,102396.25
2024-03-07T16:34:09.306Z,102399.91
2024-03-07T16:36:37.735Z,102395.50
2024-03-07T16:39:13.003Z,102392.06
2024-03-07T16:41:41.882Z,102399.25
2024-03-07T16:44:10.140Z,102400.22
2024-03-07T16:46:38.967Z,102386.94
2024-03-07T16:49:09.140Z,102390.56
2024-03-07T16:51:37.853Z,102396.88
2024-03-07T16:54:09.188Z,102389.84
2024-03-07T16:56:41.811Z,102391.69
2024-03-07T16:59:11.355Z,102385.53
2024-03-07T17:01:45.358Z,102383.81
2024-03-07T17:04:13.887Z,102384.81
2024-03-07T17:06:42.017Z,102382.25
2024-03-07T17:09:12.638Z,102391.28
2024-03-07T17:11:42.468Z,102391.31
2024-03-07T17:14:11.001Z,102395.84
2024-03-07T17:16:39.556Z,102390.53
2024-03-07T17:19:10.953Z,102394.19
2024-03-07T17:21:39.170Z,102394.28
2024-03-07T17:24:08.274Z,102400.56
2024-03-07T17:26:37.876Z,102396.19
2024-03-07T17:29:07.121Z,102398.00
2024-03-07T17:31:36.695Z,102398.94
2024-03-07T17:34:04.850Z,102400.78
2024-03-07T17:36:33.578Z,102404.41
2024-03-07T17:39:03.224Z,102400.94
2024-03-07T17:41:31.714Z,102402.75
2024-03-07T17:44:01.195Z,102401.06
2024-03-07T17:46:29.313Z,102402.88
2024-03-07T17:48:57.581Z,102409.13
2024-03-07T17:51:25.983Z,102401.19
2024-03-07T17:53:56.281Z,102399.44
2024-03-07T17:56:25.233Z,102403.09
2024-03-07T17:58:55.233Z,102395.97
2024-03-07T18:01:26.637Z,102404.06
2024-03-07T18:03:55.429Z,102403.19
2024-03-07T18:06:25.377Z,102404.13
2024-03-07T18:09:00.310Z,102405.06
2024-03-07T18:11:31.552Z,102398.91
2024-03-07T18:13:59.749Z,102398.94
2024-03-07T18:16:29.403Z,102403.41
2024-03-07T18:18:57.768Z,102401.69
2024-03-07T18:21:27.612Z,102401.69
2024-03-07T18:23:57.448Z,102399.94
2024-03-07T18:26:26.325Z,102396.44
2024-03-07T18:28:54.511Z,102403.56
2024-03-07T18:31:28.422Z,102394.66
2024-03-07T18:33:59.220Z,102400.91
2024-03-07T18:36:27.406Z,102398.28
2024-03-07T18:38:55.602Z,102406.31
2024-03-07T18:41:23.869Z,102397.41
2024-03-07T18:43:51.964Z,102390.31
2024-03-07T18:46:20.186Z,102403.66
2024-03-07T18:48:50.922Z,102409.88
2024-03-07T18:51:24.057Z,102403.72
2024-03-07T18:53:54.187Z,102405.47
2024-03-07T18:56:24.166Z,102404.59
2024-03-07T18:58:52.340Z,102413.50
2024-03-07T19:01:20.585Z,102416.16
2024-03-07T19:03:48.952Z,102408.19
2024-03-07T19:06:17.978Z,102415.28
2024-03-07T19:08:49.634Z,102413.56
2024-03-07T19:11:19.189Z,102411.78
2024-03-07T19:13:47.362Z,102404.72
2024-03-07T19:16:16.353Z,102402.94
2024-03-07T19:18:44.950Z,102402.94
2024-03-07T19:21:13.644Z,102402.09
2024-03-07T19:23:46.674Z,102405.63
2024-03-07T19:26:20.336Z,102412.72
2024-03-07T19:28:49.031Z,102403.91
2024-03-07T19:31:17.214Z,102408.34
2024-03-07T19:33:45.567Z,102403.91
2024-03-07T19:36:15.882Z,102395.91
2024-03-07T19:38:47.488Z,102403.03
2024-03-07T19:41:17.763Z,102392.41
2024-03-07T19:43:45.961Z,102390.63
2024-03-07T19:46:14.438Z,102396.84
2024-03-07T19:48:43.985Z,102402.16
2024-03-07T19:51:12.990Z,102400.38
2024-03-07T19:53:41.459Z,102396.84
2024-03-07T19:56:13.581Z,102399.50
2024-03-07T19:58:45.770Z,102403.97
2024-03-07T20:01:14.117Z,102402.19
2024-03-07T20:03:44.361Z,102399.53
2024-03-07T20:06:12.641Z,102401.31
2024-03-07T20:08:40.962Z,102401.31
2024-03-07T20:11:09.155Z,102399.53
2024-03-07T20:13:40.982Z,102403.97
2024-03-07T20:16:10.754Z,102406.63
2024-03-07T20:18:42.675Z,102403.97
2024-03-07T20:21:11.943Z,102410.19
2024-03-07T20:23:42.632Z,102403.09
2024-03-07T20:26:10.838Z,102398.66
2024-03-07T20:28:39.401Z,102397.78
2024-03-07T20:31:09.453Z,102396.91
2024-03-07T20:33:39.545Z,102402.22
2024-03-07T20:36:10.297Z,102390.69
2024-03-07T20:38:39.794Z,102394.25
2024-03-07T20:41:08.202Z,102395.16
2024-03-07T20:43:37.669Z,102396.94
2024-03-07T20:46:07.547Z,102389.84
2024-03-07T20:48:37.433Z,102390.72
2024-03-07T20:51:11.430Z,102393.38
2024-03-07T20:53:40.841Z,102394.25
2024-03-07T20:56:09.139Z,102393.34
2024-03-07T20:58:37.672Z,102396.88
2024-03-07T21:01:09.172Z,102397.78
2024-03-07T21:03:41.975Z,102402.22
2024-03-07T21:06:12.774Z,102398.66
2024-03-07T21:08:43.165Z,102393.34
2024-03-07T21:11:13.042Z,102397.81
2024-03-07T21:13:41.415Z,102388.94
2024-03-07T21:16:12.252Z,102387.16
2024-03-07T21:18:40.482Z,102388.03
2024-03-07T21:21:08.726Z,102381.84
2024-03-07T21:23:41.396Z,102393.38
2024-03-07T21:26:12.826Z,102392.50
2024-03-07T21:28:41.659Z,102385.41
2024-03-07T21:31:09.800Z,102395.16
2024-03-07T21:33:40.326Z,102383.63
2024-03-07T21:36:10.622Z,102382.75
2024-03-07T21:38:41.142Z,102380.97
2024-03-07T21:41:10.656Z,102380.06
2024-03-07T21:43:39.302Z,102384.53
2024-03-07T21:46:08.893Z,102378.34
2024-03-07T21:48:37.294Z,102376.56
2024-03-07T21:51:07.908Z,102373.91
2024-03-07T21:53:41.246Z,102373.91
2024-03-07T21:56:09.708Z,102372.13
2024-03-07T21:58:37.851Z,102374.75
2024-03-07T22:01:09.801Z,102372.13
2024-03-07T22:03:42.683Z,102368.59
2024-03-07T22:06:11.023Z,102370.34
2024-03-07T22:08:40.673Z,102379.19
2024-03-07T22:11:15.986Z,102366.81
2024-03-07T22:13:45.859Z,102373.03
2024-03-07T22:16:13.964Z,102370.38
2024-03-07T22:18:43.873Z,102358.84
2024-03-07T22:21:12.350Z,102361.50
2024-03-07T22:23:41.994Z,102365.06
2024-03-07T22:26:13.774Z,102353.50
2024-03-07T22:28:41.956Z,102356.19
2024-03-07T22:31:10.915Z,102365.03
2024-03-07T22:33:39.349Z,102357.06
2024-03-07T22:36:10.499Z,102364.16
2024-03-07T22:38:38.762Z,102363.25
2024-03-07T22:41:08.426Z,102362.38
2024-03-07T22:43:36.495Z,102358.84
2024-03-07T22:46:05.394Z,102355.25
2024-03-07T22:48:36.861Z,102358.81
2024-03-07T22:51:06.689Z,102354.38
2024-03-07T22:53:34.906Z,102351.69
2024-03-07T22:56:03.740Z,102356.13
2024-03-07T22:58:33.234Z,102347.28
2024-03-07T23:01:01.426Z,102348.13
2024-03-07T23:03:32.545Z,102341.94
2024-03-07T23:06:00.920Z,102347.22
2024-03-07T23:08:29.123Z,102346.34
2024-03-07T23:10:57.329Z,102341.88
2024-03-07T23:13:25.458Z,102337.44
2024-03-07T23:15:55.015Z,102336.53
2024-03-07T23:18:23.280Z,102332.09
2024-03-07T23:20:51.459Z,102326.78
2024-03-07T23:23:19.589Z,102324.97
2024-03-07T23:25:47.766Z,102324.09
2024-03-07T23:28:20.378Z,102322.31
2024-03-07T23:30:48.963Z,102322.28
2024-03-07T23:33:19.388Z,102319.63
2024-03-07T23:35:47.869Z,102322.28
2024-03-07T23:38:16.024Z,102322.25
2024-03-07T23:40:44.119Z,102316.97
2024-03-07T23:43:13.213Z,102314.31
2024-03-07T23:45:42.178Z,102316.06
2024-03-07T23:48:10.406Z,102317.84
2024-03-07T23:50:39.910Z,102321.34
2024-03-07T23:53:08.243Z,102318.69
2024-03-07T23:55:37.231Z,102315.13
2024-03-07T23:58:05.821Z,102315.13
